Time;durP1;ratioP1;P1;durP2;ratioP2;P2;SDS_P1;SDS_P2;PMS_P1;PMS_P2;Temp;Humidity;BMP_temperature;BMP_pressure;BME280_temperature;BME280_humidity;BME280_pressure;Samples;Min_cycle;Max_cycle;Signal;HPM_P1;HPM_P2
2021/09/26 00:00:52;;;;;;;8.33;6.00;;;;;;;12.28;100.00;101405.38;5073233;28;20032;-69
2021/09/26 00:03:17;;;;;;;9.40;5.23;;;;;;;12.25;100.00;101409.22;5091273;28;20461;-69
2021/09/26 00:05:43;;;;;;;8.13;5.30;;;;;;;12.31;100.00;101416.59;5073319;28;20040;-69
2021/09/26 00:08:09;;;;;;;11.05;7.20;;;;;;;12.34;100.00;101410.94;5091065;28;20031;-69
2021/09/26 00:10:35;;;;;;;10.00;7.03;;;;;;;12.40;100.00;101415.66;5090492;28;20115;-69
2021/09/26 00:13:00;;;;;;;9.70;6.73;;;;;;;12.43;100.00;101415.34;5090086;28;20059;-69
2021/09/26 00:15:26;;;;;;;11.23;6.63;;;;;;;12.49;100.00;101416.53;5090055;28;20039;-69
2021/09/26 00:17:53;;;;;;;11.02;6.35;;;;;;;12.50;100.00;101412.03;5073198;28;20053;-69
2021/09/26 00:20:19;;;;;;;8.52;6.68;;;;;;;12.51;100.00;101413.72;5090905;28;20032;-69
2021/09/26 00:22:45;;;;;;;12.68;5.88;;;;;;;12.54;100.00;101411.53;5090869;28;20036;-69
2021/09/26 00:25:12;;;;;;;8.65;5.90;;;;;;;12.58;100.00;101406.72;5072847;28;20096;-69
2021/09/26 00:27:38;;;;;;;15.77;6.65;;;;;;;12.61;100.00;101409.06;5072944;28;20036;-68
2021/09/26 00:30:06;;;;;;;9.05;6.70;;;;;;;12.60;100.00;101402.06;5089558;28;20405;-69
2021/09/26 00:32:32;;;;;;;8.82;6.68;;;;;;;12.59;100.00;101387.78;5090847;28;20024;-68
2021/09/26 00:34:57;;;;;;;11.07;6.30;;;;;;;12.61;100.00;101393.84;5090483;28;20407;-69
2021/09/26 00:37:23;;;;;;;11.57;6.57;;;;;;;12.67;100.00;101401.25;5090563;28;20036;-69
2021/09/26 00:39:48;;;;;;;11.55;6.72;;;;;;;12.68;100.00;101400.22;5090252;28;20031;-69
2021/09/26 00:42:14;;;;;;;12.67;7.60;;;;;;;12.74;100.00;101409.47;5089570;28;20083;-69
2021/09/26 00:44:39;;;;;;;12.73;7.93;;;;;;;12.75;100.00;101404.97;5072552;28;20036;-69
2021/09/26 00:47:04;;;;;;;13.63;7.77;;;;;;;12.73;100.00;101397.06;5072752;28;20105;-69
2021/09/26 00:49:30;;;;;;;15.30;8.10;;;;;;;12.73;100.00;101397.06;5090053;28;20032;-69
2021/09/26 00:51:56;;;;;;;13.10;6.60;;;;;;;12.70;100.00;101396.56;5089519;28;20123;-69
2021/09/26 00:54:21;;;;;;;10.05;5.93;;;;;;;12.70;100.00;101394.72;5090089;28;20036;-69
2021/09/26 00:56:48;;;;;;;7.47;5.85;;;;;;;12.73;100.00;101398.91;5089063;28;20614;-69
2021/09/26 00:59:18;;;;;;;8.35;5.93;;;;;;;12.74;100.00;101403.28;5072021;28;20089;-69
2021/09/26 01:01:45;;;;;;;8.35;5.55;;;;;;;12.76;100.00;101390.53;5072364;28;20032;-69
2021/09/26 01:04:10;;;;;;;9.13;6.13;;;;;;;12.75;100.00;101388.88;5089726;28;20426;-69
2021/09/26 01:06:50;;;;;;;9.00;6.50;;;;;;;12.82;100.00;101389.91;5088843;28;20114;-69
2021/09/26 01:09:26;;;;;;;10.30;6.50;;;;;;;12.80;100.00;101400.78;5071493;28;20357;-69
2021/09/26 01:12:06;;;;;;;10.55;6.72;;;;;;;12.84;100.00;101398.63;5072234;28;20039;-69
2021/09/26 01:14:50;;;;;;;10.52;7.20;;;;;;;12.88;100.00;101405.34;5088687;28;20028;-69
2021/09/26 01:17:44;;;;;;;8.10;6.07;;;;;;;12.91;100.00;101402.34;5089604;28;20047;-69
2021/09/26 01:20:21;;;;;;;11.25;6.50;;;;;;;12.92;100.00;101398.66;5088496;28;20040;-69
2021/09/26 01:23:05;;;;;;;10.18;6.88;;;;;;;12.93;100.00;101391.47;5089724;28;20039;-69
2021/09/26 01:26:08;;;;;;;9.68;6.03;;;;;;;12.98;100.00;101391.81;5089283;28;20031;-68
2021/09/26 01:29:04;;;;;;;9.68;7.15;;;;;;;12.98;100.00;101389.13;5071844;28;20039;-69
2021/09/26 01:31:41;;;;;;;11.27;7.25;;;;;;;12.97;100.00;101391.00;5089436;28;20582;-69
2021/09/26 01:34:16;;;;;;;9.32;6.55;;;;;;;12.93;100.00;101386.94;5088398;28;20047;-69
2021/09/26 01:36:55;;;;;;;10.77;7.15;;;;;;;12.97;100.00;101401.72;5089283;28;20035;-69
2021/09/26 01:39:23;;;;;;;12.13;6.93;;;;;;;12.95;100.00;101394.84;5089112;28;20031;-69
2021/09/26 01:42:10;;;;;;;10.38;6.18;;;;;;;12.96;100.00;101400.00;5089181;28;20035;-69
2021/09/26 01:45:05;;;;;;;13.20;6.53;;;;;;;13.00;100.00;101393.34;5087508;28;20101;-69
2021/09/26 01:47:41;;;;;;;11.90;6.93;;;;;;;13.04;100.00;101394.69;5046033;28;20067;-69
2021/09/26 01:50:09;;;;;;;9.20;6.73;;;;;;;13.07;100.00;101397.03;5071065;28;20514;-69
2021/09/26 01:52:37;;;;;;;8.88;7.00;;;;;;;13.07;100.00;101397.03;5089145;28;20044;-69
2021/09/26 01:55:05;;;;;;;8.60;6.32;;;;;;;13.08;100.00;101393.34;5070956;28;20024;-69
2021/09/26 01:57:31;;;;;;;15.55;7.13;;;;;;;13.08;100.00;101390.66;5088977;28;20087;-69
2021/09/26 02:00:00;;;;;;;10.52;7.25;;;;;;;13.13;100.00;101389.34;5088608;28;20059;-69
2021/09/26 02:02:27;;;;;;;9.30;5.95;;;;;;;13.14;100.00;101388.34;5089054;28;20028;-68
2021/09/26 02:04:59;;;;;;;8.60;6.22;;;;;;;13.12;100.00;101398.41;5088026;28;20032;-69
2021/09/26 02:07:27;;;;;;;9.70;6.50;;;;;;;13.14;100.00;101393.72;5070884;28;20700;-69
2021/09/26 02:09:54;;;;;;;12.38;6.95;;;;;;;13.13;100.00;101386.66;5070461;28;20020;-69
2021/09/26 02:12:20;;;;;;;9.80;6.10;;;;;;;13.17;100.00;101396.91;5087884;28;20105;-69
2021/09/26 02:14:47;;;;;;;12.30;7.20;;;;;;;13.18;100.00;101403.09;5087593;28;20086;-69
2021/09/26 02:17:13;;;;;;;10.82;6.25;;;;;;;13.19;100.00;101402.09;5070601;28;20035;-69
2021/09/26 02:19:40;;;;;;;13.82;5.65;;;;;;;13.17;100.00;101396.91;5087519;28;20028;-69
2021/09/26 02:22:09;;;;;;;11.30;6.63;;;;;;;13.17;100.00;101409.47;5088519;28;20042;-68
2021/09/26 02:24:36;;;;;;;17.48;7.78;;;;;;;13.21;100.00;101400.09;5087516;28;20055;-69
2021/09/26 02:27:01;;;;;;;8.38;5.80;;;;;;;13.19;100.00;101400.25;5088476;28;20361;-69
2021/09/26 02:29:28;;;;;;;8.68;5.70;;;;;;;13.20;100.00;101404.59;5070452;28;20047;-69
2021/09/26 02:31:54;;;;;;;9.75;5.28;;;;;;;13.23;100.00;101408.81;5087296;28;20449;-69
2021/09/26 02:34:19;;;;;;;8.38;5.78;;;;;;;13.23;100.00;101411.50;5087305;28;20047;-69
2021/09/26 02:36:45;;;;;;;7.10;5.47;;;;;;;13.25;100.00;101417.53;5088339;28;20412;-69
2021/09/26 02:39:15;;;;;;;7.05;4.95;;;;;;;13.24;100.00;101423.91;5088168;28;20301;-69
2021/09/26 02:41:49;;;;;;;7.65;4.72;;;;;;;13.26;100.00;101427.25;5087369;28;20046;-69
2021/09/26 02:44:31;;;;;;;9.57;5.20;;;;;;;13.28;100.00;101422.59;5088173;28;20031;-69
2021/09/26 02:47:02;;;;;;;11.52;5.30;;;;;;;13.27;100.00;101418.19;5088238;28;20027;-69
2021/09/26 02:49:29;;;;;;;7.63;5.13;;;;;;;13.27;100.00;101418.19;5088122;28;20536;-69
2021/09/26 02:51:55;;;;;;;7.97;5.25;;;;;;;13.28;100.00;101410.03;5088298;28;20028;-69
2021/09/26 02:54:22;;;;;;;11.48;4.68;;;;;;;13.30;100.00;101409.88;5088147;28;20099;-69
2021/09/26 02:56:49;;;;;;;9.20;5.57;;;;;;;13.29;100.00;101411.69;5091657;28;20533;-69
2021/09/26 02:59:15;;;;;;;8.73;5.00;;;;;;;13.29;100.00;101409.00;5092067;28;20090;-69
2021/09/26 03:01:54;;;;;;;6.57;4.90;;;;;;;13.34;100.00;101416.56;5092290;28;20070;-69
2021/09/26 03:04:20;;;;;;;9.73;4.88;;;;;;;13.34;100.00;101407.69;5090855;28;20074;-69
2021/09/26 03:06:46;;;;;;;8.32;4.93;;;;;;;13.35;100.00;101412.06;5074412;28;20067;-69
2021/09/26 03:09:12;;;;;;;;;;;;;;;13.35;100.00;101402.19;5091859;28;20031;-69
2021/09/26 03:11:37;;;;;;;;;;;;;;;13.34;100.00;101397.78;5091634;28;19973;-69
2021/09/26 03:14:03;;;;;;;11.17;5.60;;;;;;;13.36;100.00;101400.31;5091033;28;19923;-69
2021/09/26 03:16:29;;;;;;;7.72;4.57;;;;;;;13.36;100.00;101397.63;5092035;28;20090;-69
2021/09/26 03:18:55;;;;;;;6.15;3.80;;;;;;;13.33;100.00;101397.97;5090824;28;20593;-69
2021/09/26 03:21:20;;;;;;;12.07;5.00;;;;;;;13.35;100.00;101391.44;5091885;28;20073;-69
2021/09/26 03:23:46;;;;;;;9.90;4.57;;;;;;;13.32;100.00;101381.03;5074053;28;20028;-69
2021/09/26 03:26:11;;;;;;;7.97;4.53;;;;;;;13.31;100.00;101384.72;5091720;28;20075;-69
2021/09/26 03:28:37;;;;;;;15.52;4.90;;;;;;;13.35;100.00;101375.34;5090463;28;20039;-68
2021/09/26 03:31:03;;;;;;;5.65;4.40;;;;;;;13.34;100.00;101368.28;5091826;28;20112;-69
2021/09/26 03:33:28;;;;;;;4.87;3.97;;;;;;;13.37;100.00;101367.13;5090797;28;20039;-69
2021/09/26 03:35:54;;;;;;;8.55;4.05;;;;;;;13.37;100.00;101368.00;5091367;28;20168;-69
2021/09/26 03:38:19;;;;;;;7.23;3.70;;;;;;;13.37;100.00;101365.31;5091474;28;20036;-69
2021/09/26 03:40:45;;;;;;;7.40;3.57;;;;;;;13.38;100.00;101353.56;5073539;28;20483;-69
2021/09/26 03:43:11;;;;;;;6.17;3.77;;;;;;;13.31;100.00;101355.22;5091500;28;20032;-69
2021/09/26 03:45:36;;;;;;;5.28;3.20;;;;;;;13.35;100.00;101347.72;5090500;28;20036;-69
2021/09/26 03:48:02;;;;;;;8.88;3.63;;;;;;;13.39;100.00;101349.91;5091335;28;20761;-69
2021/09/26 03:50:28;;;;;;;5.22;3.50;;;;;;;13.43;100.00;101345.84;5091142;28;20066;-69
2021/09/26 03:52:53;;;;;;;6.57;3.50;;;;;;;13.42;100.00;101351.41;5073595;28;20144;-69
2021/09/26 03:55:19;;;;;;;8.27;3.00;;;;;;;13.48;100.00;101353.41;5091268;28;20102;-69
2021/09/26 03:57:45;;;;;;;7.35;2.83;;;;;;;13.44;100.00;101352.91;5091028;28;20439;-69
2021/09/26 04:00:14;;;;;;;17.10;4.55;;;;;;;13.52;100.00;101342.16;5090143;28;20070;-69
2021/09/26 04:02:40;;;;;;;5.15;2.53;;;;;;;13.61;100.00;101323.41;5073289;28;20036;-69
2021/09/26 04:05:07;;;;;;;5.47;2.88;;;;;;;13.66;100.00;101304.94;5090572;28;20036;-69
2021/09/26 04:07:32;;;;;;;5.78;2.80;;;;;;;13.71;100.00;101310.63;5089537;28;20036;-69
2021/09/26 04:09:58;;;;;;;10.50;4.13;;;;;;;13.70;100.00;101299.06;5072731;28;20441;-69
2021/09/26 04:12:23;;;;;;;7.40;3.95;;;;;;;13.68;100.00;101300.25;5091112;28;20032;-69
2021/09/26 04:14:49;;;;;;;9.10;3.77;;;;;;;13.71;100.00;101299.91;5089797;28;20043;-69
2021/09/26 04:17:14;;;;;;;8.77;3.60;;;;;;;13.71;100.00;101308.78;5072901;28;20040;-69
2021/09/26 04:19:40;;;;;;;5.13;4.03;;;;;;;13.75;100.00;101311.97;5089569;28;20366;-69
2021/09/26 04:22:05;;;;;;;6.32;3.33;;;;;;;13.73;100.00;101314.00;5090832;28;20358;-69
2021/09/26 04:24:31;;;;;;;5.68;3.33;;;;;;;13.72;100.00;101321.22;5056047;28;20031;-69
2021/09/26 04:26:57;;;;;;;10.77;4.45;;;;;;;13.73;100.00;101319.38;5090629;28;20051;-69
2021/09/26 04:29:23;;;;;;;6.57;3.70;;;;;;;13.69;100.00;101318.84;5090372;28;20383;-69
2021/09/26 04:31:49;;;;;;;10.32;3.95;;;;;;;13.70;100.00;101330.44;5056111;28;20024;-69
2021/09/26 04:34:14;;;;;;;6.80;3.65;;;;;;;13.66;100.00;101329.09;5090349;28;20036;-69
2021/09/26 04:36:40;;;;;;;7.53;4.17;;;;;;;13.67;100.00;101325.41;5090450;28;20423;-69
2021/09/26 04:39:05;;;;;;;8.77;3.38;;;;;;;13.64;100.00;101337.31;5072270;28;20032;-69
2021/09/26 04:41:32;;;;;;;6.50;2.90;;;;;;;13.63;100.00;101341.00;5090588;28;20096;-69
2021/09/26 04:43:58;;;;;;;;;;;;;;;13.62;100.00;101349.22;5090788;28;20032;-69
2021/09/26 04:46:23;;;;;;;;;;;;;;;13.61;100.00;101348.38;5089638;28;19966;-69
2021/09/26 04:48:48;;;;;;;;;;;;;;;13.60;100.00;101352.09;5089377;28;19924;-69
2021/09/26 04:51:14;;;;;;;5.97;3.20;;;;;;;13.59;100.00;101358.44;5089469;28;19923;-69
2021/09/26 04:53:39;;;;;;;10.77;3.90;;;;;;;13.56;100.00;101347.22;5090241;28;20043;-69
2021/09/26 04:56:05;;;;;;;6.97;3.55;;;;;;;13.54;100.00;101351.91;5088738;28;20040;-69
2021/09/26 04:58:30;;;;;;;9.77;3.50;;;;;;;13.54;100.00;101352.75;5089282;28;20035;-69
2021/09/26 05:00:56;;;;;;;6.53;3.20;;;;;;;13.56;100.00;101361.47;5089584;28;20043;-69
2021/09/26 05:03:21;;;;;;;4.93;2.70;;;;;;;13.56;100.00;101353.41;5090169;28;20097;-69
2021/09/26 05:05:47;;;;;;;6.43;3.15;;;;;;;13.62;100.00;101346.53;5089047;28;20472;-69
2021/09/26 05:08:12;;;;;;;5.07;2.73;;;;;;;13.72;100.00;101339.16;5088949;28;20457;-69
2021/09/26 05:10:38;;;;;;;6.47;3.47;;;;;;;13.80;100.00;101319.53;5087928;28;20707;-69
2021/09/26 05:13:03;;;;;;;6.10;3.63;;;;;;;13.81;100.00;101322.03;5072041;28;20073;-69
2021/09/26 05:15:29;;;;;;;3.88;2.80;;;;;;;13.89;100.00;101322.03;5089549;28;20422;-69
2021/09/26 05:17:56;;;;;;;6.65;3.28;;;;;;;13.90;100.00;101321.00;5088781;28;20064;-69
2021/09/26 05:20:21;;;;;;;;;;;;;;;13.92;100.00;101313.63;5071969;28;20024;-69
2021/09/26 05:22:48;;;;;;;;;;;;;;;13.92;100.00;101312.78;5089233;28;19976;-69
2021/09/26 05:25:14;;;;;;;6.63;3.22;;;;;;;13.89;100.00;101307.78;5088235;28;20394;-69
2021/09/26 05:27:40;;;;;;;5.15;2.83;;;;;;;13.87;100.00;101313.31;5071640;28;20050;-69
2021/09/26 05:30:07;;;;;;;6.65;3.05;;;;;;;13.87;100.00;101310.63;5089118;28;20027;-69
2021/09/26 05:32:33;;;;;;;5.75;2.95;;;;;;;13.90;100.00;101312.94;5089531;28;20024;-69
2021/09/26 05:34:58;;;;;;;5.82;3.22;;;;;;;13.89;100.00;101308.59;5089252;28;20520;-69
2021/09/26 05:37:24;;;;;;;5.63;2.43;;;;;;;13.87;100.00;101315.16;5071345;28;20140;-69
2021/09/26 05:39:49;;;;;;;10.90;3.33;;;;;;;13.87;100.00;101321.34;5088148;28;20627;-69
2021/09/26 05:42:15;;;;;;;3.93;3.13;;;;;;;13.85;100.00;101320.69;5071343;28;20132;-69
2021/09/26 05:44:40;;;;;;;3.10;2.80;;;;;;;13.83;100.00;101336.13;5089125;28;20036;-69
2021/09/26 05:47:09;;;;;;;6.17;3.43;;;;;;;13.86;100.00;101332.25;5071266;28;20028;-69
2021/09/26 05:49:36;;;;;;;3.78;3.10;;;;;;;13.89;100.00;101329.25;5088891;28;20122;-69
2021/09/26 05:52:08;;;;;;;6.80;2.67;;;;;;;13.90;100.00;101334.44;5089090;28;20073;-69
2021/09/26 05:54:35;;;;;;;6.10;3.38;;;;;;;13.91;100.00;101336.13;5071096;28;20372;-69
2021/09/26 05:57:01;;;;;;;8.45;3.30;;;;;;;13.93;100.00;101339.47;5087769;28;20027;-69
2021/09/26 05:59:26;;;;;;;6.70;3.13;;;;;;;13.96;100.00;101340.97;5070960;28;20368;-69
2021/09/26 06:01:52;;;;;;;5.93;3.97;;;;;;;13.97;100.00;101342.63;5070954;28;20074;-69
2021/09/26 06:04:18;;;;;;;7.40;3.95;;;;;;;14.03;100.00;101349.19;5087254;28;20168;-69
2021/09/26 06:06:43;;;;;;;7.87;5.00;;;;;;;14.05;100.00;101342.63;5088490;28;20048;-69
2021/09/26 06:09:08;;;;;;;8.73;3.75;;;;;;;14.14;100.00;101359.56;5070247;28;20136;-69
2021/09/26 06:11:34;;;;;;;7.33;3.73;;;;;;;14.15;100.00;101355.88;5088758;28;20406;-70
2021/09/26 06:14:00;;;;;;;5.47;3.05;;;;;;;14.17;100.00;101359.22;5088758;28;20035;-70
2021/09/26 06:16:25;;;;;;;7.47;3.73;;;;;;;14.23;100.00;101358.53;5088579;28;20040;-70
2021/09/26 06:18:51;;;;;;;5.07;3.85;;;;;;;14.26;100.00;101352.00;5088305;28;20069;-70
2021/09/26 06:21:16;;;;;;;5.80;3.57;;;;;;;14.31;100.00;101347.78;5087685;28;20044;-70
2021/09/26 06:23:42;;;;;;;4.78;3.20;;;;;;;14.29;100.00;101341.75;5088574;28;20042;-70
2021/09/26 06:26:07;;;;;;;6.10;3.10;;;;;;;14.35;100.00;101348.25;5087432;28;20457;-69
2021/09/26 06:28:33;;;;;;;3.80;3.33;;;;;;;14.38;100.00;101345.25;5088517;28;20038;-70
2021/09/26 06:30:58;;;;;;;8.80;4.28;;;;;;;14.46;100.00;101350.56;5088210;28;20263;-70
2021/09/26 06:33:26;;;;;;;8.00;3.70;;;;;;;14.49;100.00;101352.06;5088454;28;20445;-70
2021/09/26 06:35:52;;;;;;;8.02;3.97;;;;;;;14.50;100.00;101346.53;5087219;28;20032;-70
2021/09/26 06:38:18;;;;;;;9.57;4.35;;;;;;;14.57;100.00;101344.84;5088252;28;20035;-70
2021/09/26 06:40:43;;;;;;;6.17;4.10;;;;;;;14.58;100.00;101345.69;5088422;28;20039;-70
2021/09/26 06:43:10;;;;;;;8.35;5.10;;;;;;;14.59;100.00;101346.56;5088405;28;20082;-70
2021/09/26 06:45:35;;;;;;;11.30;4.45;;;;;;;14.62;100.00;101333.59;5088321;28;20036;-70
2021/09/26 06:48:00;;;;;;;6.93;5.83;;;;;;;14.65;100.00;101337.78;5053798;28;20555;-70
2021/09/26 06:50:27;;;;;;;10.07;5.70;;;;;;;14.69;100.00;101333.72;5087334;28;20103;-70
2021/09/26 06:52:53;;;;;;;6.40;4.97;;;;;;;14.74;100.00;101331.34;5070591;28;20342;-70
2021/09/26 06:55:18;;;;;;;7.53;5.20;;;;;;;14.73;100.00;101333.22;5053823;28;20047;-70
2021/09/26 06:57:44;;;;;;;8.43;5.22;;;;;;;14.83;100.00;101338.34;5088318;28;20058;-70
2021/09/26 07:00:10;;;;;;;9.55;5.20;;;;;;;14.86;100.00;101346.06;5087528;28;20058;-70
2021/09/26 07:02:35;;;;;;;8.10;6.22;;;;;;;14.94;100.00;101342.50;5087769;28;20028;-70
2021/09/26 07:05:03;;;;;;;8.40;5.88;;;;;;;14.97;100.00;101339.47;5085645;28;20118;-70
2021/09/26 07:07:28;;;;;;;9.32;6.05;;;;;;;15.02;100.00;101338.94;5085566;28;20119;-70
2021/09/26 07:09:54;;;;;;;10.13;6.40;;;;;;;14.98;100.00;101342.00;5085897;28;20119;-70
2021/09/26 07:12:20;;;;;;;10.00;6.72;;;;;;;15.08;100.00;101331.00;5086777;28;20062;-69
2021/09/26 07:14:46;;;;;;;11.30;6.63;;;;;;;15.20;100.00;101340.31;5052027;28;20452;-70
2021/09/26 07:17:13;;;;;;;12.23;6.63;;;;;;;15.29;100.00;101337.56;5086719;28;20607;-70
2021/09/26 07:19:38;;;;;;;;;;;;;;;15.27;100.00;101327.00;5087168;28;20047;-70
2021/09/26 07:22:04;;;;;;;;;;;;;;;15.36;100.00;101333.16;5088526;28;19995;-70
2021/09/26 07:24:32;;;;;;;15.02;8.77;;;;;;;15.40;100.00;101337.16;5086938;28;19916;-70
2021/09/26 07:26:58;;;;;;;12.60;9.18;;;;;;;15.26;100.00;101337.94;5088019;28;20458;-70
2021/09/26 07:29:23;;;;;;;15.03;8.57;;;;;;;15.33;100.00;101345.09;5070146;28;20040;-70
2021/09/26 07:31:49;;;;;;;14.63;8.30;;;;;;;15.38;100.00;101342.72;5086662;28;20101;-70
2021/09/26 07:34:14;;;;;;;13.60;10.63;;;;;;;15.48;100.00;101347.88;5069294;28;20055;-70
2021/09/26 07:36:40;;;;;;;16.47;9.80;;;;;;;15.54;100.00;101351.69;5085005;28;20131;-70
2021/09/26 07:39:06;;;;;;;14.57;9.63;;;;;;;15.66;100.00;101349.41;5086729;28;20075;-70
2021/09/26 07:41:32;;;;;;;17.17;10.00;;;;;;;15.68;100.00;101350.06;5088078;28;20105;-70
2021/09/26 07:43:58;;;;;;;15.95;10.75;;;;;;;15.82;100.00;101349.28;5090758;28;20043;-70
2021/09/26 07:46:24;;;;;;;18.67;10.60;;;;;;;15.93;100.00;101351.53;5089209;28;20054;-70
2021/09/26 07:48:50;;;;;;;17.02;10.27;;;;;;;15.97;100.00;101342.09;5072504;28;20119;-70
2021/09/26 07:51:16;;;;;;;15.83;10.37;;;;;;;16.10;99.73;101346.81;5090368;28;20114;-70
2021/09/26 07:53:42;;;;;;;14.60;10.63;;;;;;;16.27;99.23;101352.88;5090855;28;20044;-70
2021/09/26 07:56:08;;;;;;;19.45;11.00;;;;;;;16.10;98.94;101348.69;5090065;28;20086;-70
2021/09/26 07:58:34;;;;;;;17.75;11.10;;;;;;;16.22;98.72;101349.91;5090614;28;20102;-70
2021/09/26 08:01:00;;;;;;;15.65;10.20;;;;;;;16.26;98.81;101345.81;5072441;28;20530;-70
2021/09/26 08:03:27;;;;;;;21.70;10.95;;;;;;;16.42;98.61;101339.41;5072702;28;20085;-70
2021/09/26 08:05:52;;;;;;;17.45;10.48;;;;;;;16.53;97.61;101340.78;5055367;28;20114;-70
2021/09/26 08:08:18;;;;;;;17.45;10.85;;;;;;;16.59;97.06;101342.75;5072600;28;20507;-70
2021/09/26 08:10:44;;;;;;;19.70;11.53;;;;;;;16.59;96.68;101335.47;5089606;28;20043;-70
2021/09/26 08:13:09;;;;;;;16.35;11.70;;;;;;;16.51;96.37;101348.25;5089932;28;20062;-71
2021/09/26 08:15:35;;;;;;;16.23;11.63;;;;;;;16.61;96.54;101348.78;5089071;28;20042;-70
2021/09/26 08:18:00;;;;;;;23.90;13.20;;;;;;;16.59;97.11;101345.44;5088638;28;20452;-70
2021/09/26 08:20:28;;;;;;;15.60;11.70;;;;;;;16.48;97.50;101349.44;5089701;28;20127;-70
2021/09/26 08:22:54;;;;;;;18.65;11.38;;;;;;;16.50;98.29;101357.34;5072250;28;20422;-70
2021/09/26 08:25:22;;;;;;;18.75;12.85;;;;;;;16.52;97.85;101355.28;5088653;28;20040;-70
2021/09/26 08:27:48;;;;;;;16.42;11.63;;;;;;;16.66;97.96;101351.75;5089656;28;20047;-70
2021/09/26 08:30:15;;;;;;;19.50;11.95;;;;;;;16.58;98.15;101352.69;5089209;28;20463;-70
2021/09/26 08:32:41;;;;;;;19.05;11.88;;;;;;;16.77;98.62;101367.44;5088982;28;20032;-70
2021/09/26 08:35:07;;;;;;;15.40;10.27;;;;;;;16.85;97.82;101350.34;5090434;28;20028;-70
2021/09/26 08:37:33;;;;;;;17.13;11.93;;;;;;;16.95;97.73;101350.03;5090278;28;20039;-70
2021/09/26 08:39:58;;;;;;;16.08;11.88;;;;;;;16.82;97.68;101362.34;5088869;28;20032;-70
2021/09/26 08:42:25;;;;;;;16.50;11.30;;;;;;;16.91;97.98;101368.47;5090315;28;20032;-70
2021/09/26 08:44:51;;;;;;;19.25;11.77;;;;;;;16.91;97.37;101356.88;5089553;28;20504;-70
2021/09/26 08:47:18;;;;;;;19.42;13.27;;;;;;;17.00;97.53;101358.44;5090076;28;20058;-70
2021/09/26 08:49:44;;;;;;;18.60;11.82;;;;;;;17.00;97.52;101364.66;5089799;28;20031;-70
2021/09/26 08:52:10;;;;;;;19.38;12.13;;;;;;;17.09;97.36;101363.50;5089781;28;20032;-68
2021/09/26 08:54:38;;;;;;;15.75;13.07;;;;;;;17.16;97.08;101360.03;5089120;28;20051;-69
2021/09/26 08:57:05;;;;;;;15.32;11.27;;;;;;;17.35;96.87;101361.25;5089126;28;20074;-69
2021/09/26 08:59:31;;;;;;;13.90;11.85;;;;;;;17.25;95.69;101367.81;5088457;28;20062;-69
2021/09/26 09:01:56;;;;;;;16.25;12.63;;;;;;;17.39;96.05;101357.16;5089375;28;20381;-69
2021/09/26 09:04:41;;;;;;;21.92;12.60;;;;;;;17.49;95.18;101350.44;5070911;28;20044;-69
2021/09/26 09:07:09;;;;;;;25.77;12.68;;;;;;;17.53;94.46;101348.16;5089260;28;20075;-68
2021/09/26 09:09:52;;;;;;;14.38;12.27;;;;;;;17.71;93.61;101353.94;5087581;28;20353;-69
2021/09/26 09:12:25;;;;;;;21.35;11.88;;;;;;;18.07;93.25;101344.03;5088420;28;20594;-69
2021/09/26 09:14:50;;;;;;;19.42;12.85;;;;;;;18.47;91.65;101353.25;5088770;28;20039;-69
2021/09/26 09:17:42;;;;;;;20.00;13.00;;;;;;;18.38;90.46;101340.06;5088344;28;20040;-69
2021/09/26 09:20:20;;;;;;;19.38;13.00;;;;;;;18.94;87.99;101335.38;5088615;28;20517;-69
2021/09/26 09:22:54;;;;;;;18.95;12.75;;;;;;;19.59;86.22;101326.72;5087988;28;20036;-69
2021/09/26 09:25:30;;;;;;;14.88;11.48;;;;;;;20.20;82.56;101310.22;5088613;28;20360;-69
2021/09/26 09:27:58;;;;;;;14.45;11.13;;;;;;;20.30;81.56;101317.06;5088803;28;20028;-69
2021/09/26 09:30:29;;;;;;;18.80;9.77;;;;;;;21.90;77.42;101309.66;5088333;28;20032;-69
2021/09/26 09:32:55;;;;;;;16.20;10.07;;;;;;;22.41;73.81;101306.84;5088018;28;20040;-70
2021/09/26 09:35:21;;;;;;;14.75;9.35;;;;;;;22.97;72.05;101286.66;5087522;28;20364;-70
2021/09/26 09:37:46;;;;;;;16.00;8.75;;;;;;;23.25;69.94;101280.59;5087593;28;20032;-70
2021/09/26 09:40:15;;;;;;;12.75;9.40;;;;;;;23.31;69.83;101287.81;5088408;28;20031;-69
2021/09/26 09:42:47;;;;;;;10.80;8.00;;;;;;;22.13;72.73;101294.59;5087606;28;20155;-70
2021/09/26 09:45:25;;;;;;;13.02;9.30;;;;;;;22.20;72.97;101299.94;5070747;28;20460;-69
2021/09/26 09:48:03;;;;;;;14.75;10.75;;;;;;;22.42;72.21;101298.44;5070579;28;20055;-70
2021/09/26 09:50:58;;;;;;;14.07;9.60;;;;;;;22.68;69.97;101280.94;5087103;28;20888;-70
2021/09/26 09:53:41;;;;;;;14.77;10.68;;;;;;;22.47;71.93;101295.88;5087254;28;20791;-69
2021/09/26 09:56:21;;;;;;;9.10;7.68;;;;;;;23.04;70.62;101265.63;5088087;28;20032;-70
2021/09/26 09:58:50;;;;;;;16.27;8.98;;;;;;;23.86;67.19;101264.91;5088499;28;20061;-70
2021/09/26 10:01:24;;;;;;;12.35;8.93;;;;;;;22.61;70.63;101277.50;5088713;28;20043;-69
2021/09/26 10:03:54;;;;;;;8.52;7.55;;;;;;;22.41;71.46;101288.63;5070612;28;20044;-69
2021/09/26 10:06:44;;;;;;;10.23;8.00;;;;;;;22.45;72.81;101299.88;5087729;28;20105;-69
2021/09/26 10:09:17;;;;;;;10.82;7.97;;;;;;;22.25;70.56;101273.75;5070053;28;20060;-69
2021/09/26 10:11:46;;;;;;;12.38;8.43;;;;;;;23.07;70.54;101281.50;5070970;28;20131;-69
2021/09/26 10:14:12;;;;;;;11.35;7.70;;;;;;;23.03;70.34;101272.13;5088384;28;20511;-69
2021/09/26 10:16:37;;;;;;;;;;;;;;;22.74;70.77;101269.16;5089096;28;20032;-69
2021/09/26 10:19:03;;;;;;;9.63;7.50;;;;;;;22.68;70.56;101270.06;5088132;28;20341;-69
2021/09/26 10:21:30;;;;;;;10.57;7.95;;;;;;;22.88;71.13;101268.97;5088525;28;20035;-69
2021/09/26 10:23:56;;;;;;;12.95;9.20;;;;;;;23.29;68.58;101265.41;5070486;28;20127;-69
2021/09/26 10:26:25;;;;;;;10.60;7.78;;;;;;;23.20;69.59;101269.53;5070495;28;20035;-69
2021/09/26 10:28:56;;;;;;;10.80;8.60;;;;;;;22.96;69.81;101260.47;5088057;28;20107;-69
2021/09/26 10:31:25;;;;;;;10.52;8.07;;;;;;;22.67;71.53;101271.13;5070926;28;20521;-69
2021/09/26 10:33:51;;;;;;;12.88;8.35;;;;;;;23.08;69.43;101253.19;5070523;28;20043;-69
2021/09/26 10:36:21;;;;;;;10.23;7.38;;;;;;;23.31;70.49;101265.19;5088175;28;20537;-69
2021/09/26 10:38:49;;;;;;;14.30;8.15;;;;;;;24.18;68.77;101259.84;5087742;28;20123;-69
2021/09/26 10:41:16;;;;;;;13.85;7.13;;;;;;;23.71;67.87;101251.69;5088495;28;20040;-69
2021/09/26 10:43:42;;;;;;;9.25;7.70;;;;;;;23.31;69.27;101257.03;5053717;28;20060;-69
2021/09/26 10:46:27;;;;;;;13.57;9.30;;;;;;;22.97;71.06;101268.41;5053724;28;20046;-69
2021/09/26 10:48:56;;;;;;;9.25;7.80;;;;;;;23.13;70.74;101266.94;5087851;28;20445;-69
2021/09/26 10:51:43;;;;;;;10.38;7.00;;;;;;;23.18;69.55;101241.75;5088268;28;20032;-69
2021/09/26 10:54:37;;;;;;;10.38;7.32;;;;;;;23.54;69.15;101256.22;5086818;28;20032;-70
2021/09/26 10:57:09;;;;;;;7.97;6.85;;;;;;;25.18;64.33;101241.31;5070431;28;20032;-70
2021/09/26 11:00:04;;;;;;;7.75;6.40;;;;;;;23.74;67.63;101244.97;5087307;28;20047;-69
2021/09/26 11:02:31;;;;;;;11.77;8.18;;;;;;;24.56;66.16;101238.53;5068992;28;20059;-70
2021/09/26 11:05:05;;;;;;;9.18;7.88;;;;;;;24.21;66.12;101228.56;5086541;28;20036;-70
2021/09/26 11:07:42;;;;;;;9.48;8.10;;;;;;;22.92;70.21;101243.78;5087824;28;20076;-70
2021/09/26 11:10:08;;;;;;;8.98;6.82;;;;;;;23.62;68.47;101244.94;5086818;28;20493;-75
2021/09/26 11:12:39;;;;;;;8.52;7.15;;;;;;;23.69;68.27;101244.84;5087139;28;20059;-74
2021/09/26 11:15:11;;;;;;;10.25;7.47;;;;;;;23.77;67.36;101239.06;5069995;28;20546;-74
2021/09/26 11:17:48;;;;;;;8.95;7.38;;;;;;;23.79;66.55;101228.75;5090792;28;20085;-75
2021/09/26 11:20:29;;;;;;;10.00;7.13;;;;;;;23.78;66.77;101232.53;5091807;28;20093;-74
2021/09/26 11:23:04;;;;;;;7.78;5.82;;;;;;;24.38;65.66;101226.72;5090937;28;20646;-74